Thunder radar more information blitzortung!


avis per Pluja more information rain snow radar


Visita la nostra xarxa de llocs de meteo:

Template documentation
and downloads

And another site



Rain From: 17-10-2018 23:00 Until: 18-10-2018 16:59 warning for: Rain Level: Yellow info button

Pagina Historial Weather Underground text

Diari Resum Marc 15, 2016 Unitats:  Mètric    Imperial   Tant
« Previous Dia
SegĂźent Dia »
Diari Setmana Mensual Anual Personalitzada
  Maxima: Minima: Media:
Temperatura: -17.8 °C -15 °C -13 °C
Punt de rosada: -17.8 °C -17.1 °C -15.6 °C
Humitat: Humidity % 54 % 72 %
Wind Speed: 0 km/h 0 km/h 5.8 km/h
RĂ fegues de vent: 0 km/h - -
Vent:- - SSW
Pression baro: 0 hPa 34327.3 hPa -
Precipitacions: 50.8 mm    
Historical Graphs
 
 
Dades de taula per Marc 15, 2016
Temps Temperatura Punt de rosada Pression baro Vent Wind Speed RĂ fegues de vent Humitat Rainfall Rate (Hourly)
-17.8 °C -17.8 °C 0 hPa Calm     Humidity % 0 mm
00:05 -14.5 °C -16.6 °C 34567.7 hPa NNW 2.6 km/h 5.1 km/h 77 % 0 mm
00:15 -14.8 °C -16.8 °C 34567.7 hPa West 2.6 km/h 5.1 km/h 77 % 0 mm
00:25 -14.7 °C -16.7 °C 34567.7 hPa West 2.6 km/h 5.1 km/h 78 % 0 mm
00:35 -14.7 °C -16.8 °C 34533.8 hPa North 2.6 km/h 5.1 km/h 77 % 0 mm
00:45 -14.8 °C -16.8 °C 34567.7 hPa Calm   2.6 km/h 78 % 0 mm
01:05 -15 °C -17.1 °C 34533.8 hPa WSW 2.6 km/h 5.1 km/h 77 % 0 mm
01:15 -14.9 °C -17 °C 34567.7 hPa SW 2.6 km/h 5.1 km/h 77 % 0 mm
01:25 -15 °C -16.9 °C 34567.7 hPa Calm   5.1 km/h 78 % 0 mm
01:35 -14.9 °C -16.9 °C 34567.7 hPa SSW 5.1 km/h 5.1 km/h 78 % 0 mm
01:45 -14.8 °C -16.7 °C 34567.7 hPa South 2.6 km/h 2.6 km/h 79 % 0 mm
01:55 -14.7 °C -16.5 °C 34567.7 hPa NE 2.6 km/h 2.6 km/h 80 % 0 mm
02:05 -14.6 °C -16.3 °C 34601.5 hPa Calm   2.6 km/h 80 % 0 mm
02:15 -14.5 °C -16.3 °C 34601.5 hPa Calm     79 % 0 mm
02:25 -14.4 °C -16.3 °C 34601.5 hPa West 2.6 km/h 5.1 km/h 78 % 0 mm
02:35 -14.3 °C -16.2 °C 34601.5 hPa Calm   2.6 km/h 79 % 0 mm
02:45 -14.2 °C -16.1 °C 34601.5 hPa Calm   5.1 km/h 79 % 0 mm
02:55 -14.1 °C -16 °C 34601.5 hPa Calm   2.6 km/h 79 % 0 mm
03:15 -14 °C -15.9 °C 34601.5 hPa Calm   5.1 km/h 79 % 0 mm
03:25 -13.9 °C -15.9 °C 34601.5 hPa SW 5.1 km/h 5.1 km/h 78 % 0 mm
03:35 -13.8 °C -15.7 °C 34601.5 hPa Calm   5.1 km/h 79 % 0 mm
03:45 -13.7 °C -15.7 °C 34601.5 hPa Calm   5.1 km/h 78 % 0 mm
03:55 -13.6 °C -15.6 °C 34601.5 hPa SW 5.1 km/h 7.7 km/h 78 % 0 mm
04:05 -13.3 °C -15.4 °C 34601.5 hPa Calm   5.1 km/h 77 % 0 mm
04:15 -13.2 °C -15.4 °C 34601.5 hPa SW 5.1 km/h 5.1 km/h 76 % 0 mm
04:25 -13.1 °C -15.3 °C 34601.5 hPa SW 2.6 km/h 5.1 km/h 76 % 0 mm
10:25 -13 °C -15.2 °C 34601.5 hPa NE 9 km/h 9 km/h 76 % 0 mm
10:30 -12.9 °C -15.2 °C 34601.5 hPa SW 6 km/h 6 km/h 76 % 0 mm
10:35 -12.9 °C -15.2 °C 34601.5 hPa SW 3.1 km/h 3.1 km/h 75 % 0 mm
10:40 -12.8 °C -15.1 °C 34601.5 hPa SSW 6 km/h 6 km/h 75 % 0 mm
10:45 -12.7 °C -15.2 °C 34601.5 hPa ESE 6 km/h 6 km/h 74 % 0 mm
10:50 -12.7 °C -15.2 °C 34601.5 hPa ENE 3.1 km/h 3.1 km/h 74 % 0 mm
10:55 -12.7 °C -15.1 °C 34567.7 hPa Calm     74 % 0 mm
11:00 -12.6 °C -15.1 °C 34567.7 hPa NNE 6 km/h 6 km/h 74 % 0 mm
11:05 -12.5 °C -14.9 °C 34567.7 hPa WNW 5.1 km/h   74 % 0 mm
11:10 -12.4 °C -14.9 °C 34567.7 hPa SW 6 km/h 6 km/h 74 % 0 mm
11:15 -12.5 °C -15.1 °C 34567.7 hPa SW 4.2 km/h 4.2 km/h 73 % 0 mm
11:20 -12.4 °C -14.9 °C 34567.7 hPa SW 6 km/h 6 km/h 73 % 0 mm
11:25 -12.3 °C -14.8 °C 34533.8 hPa SW 4.2 km/h 4.2 km/h 73 % 0 mm
11:30 -12.2 °C -14.8 °C 34533.8 hPa ESE 3.7 km/h 3.7 km/h 73 % 0 mm
11:35 -12.2 °C -14.9 °C 34533.8 hPa East 6 km/h 6 km/h 72 % 0 mm
11:40 -12.2 °C -14.8 °C 34567.7 hPa ENE 3.1 km/h 3.1 km/h 72 % 0 mm
11:45 -12.1 °C -14.9 °C 34567.7 hPa East 7.6 km/h 7.6 km/h 71 % 0 mm
11:50 -12.1 °C -14.9 °C 34567.7 hPa ENE 6 km/h 6 km/h 71 % 0 mm
11:55 -12 °C -14.8 °C 34567.7 hPa ENE 3.1 km/h   71 % 0 mm
12:00 -11.9 °C -14.7 °C 34567.7 hPa ENE 6 km/h 6 km/h 71 % 0 mm
12:05 -11.9 °C -14.8 °C 34567.7 hPa NE 6 km/h 6 km/h 70 % 0 mm
12:10 -11.9 °C -14.8 °C 34533.8 hPa ENE 6 km/h 6 km/h 70 % 0 mm
12:15 -11.9 °C -14.8 °C 34533.8 hPa East 6 km/h 6 km/h 70 % 0 mm
12:20 -11.8 °C -14.8 °C 34533.8 hPa NNE 6.3 km/h 6.3 km/h 69 % 0 mm
12:25 -11.6 °C -14.7 °C 34533.8 hPa NE 6 km/h 6 km/h 69 % 0 mm
12:30 -11.5 °C -14.6 °C 34533.8 hPa WNW 6 km/h 6 km/h 69 % 0 mm
12:35 -11.4 °C -14.7 °C 34533.8 hPa ENE 6 km/h 6 km/h 67 % 0 mm
12:40 -11.4 °C -14.8 °C 34533.8 hPa ENE 6 km/h 6 km/h 66 % 0 mm
12:50 -11.4 °C -14.9 °C 34533.8 hPa SW 4.2 km/h   65 % 0 mm
12:55 -11.3 °C -14.8 °C 34533.8 hPa SW 11.9 km/h 11.9 km/h 66 % 0 mm
13:00 -11.2 °C -14.6 °C 34533.8 hPa SW 7.6 km/h   66 % 0 mm
13:05 -11.1 °C -14.7 °C 34533.8 hPa WSW 9 km/h 9 km/h 65 % 0 mm
13:10 -10.9 °C -14.6 °C 34533.8 hPa SW 11.9 km/h 11.9 km/h 64 % 0 mm
13:15 -10.9 °C -14.8 °C 34533.8 hPa East 9 km/h 9 km/h 63 % 0 mm
13:20 -10.7 °C -14.5 °C 34533.8 hPa SW 6.8 km/h 6.8 km/h 63 % 0 mm
13:25 -10.7 °C -14.6 °C 34533.8 hPa WNW 6 km/h 6 km/h 62 % 0 mm
13:30 -10.6 °C -14.5 °C 34533.8 hPa WNW 6 km/h 6 km/h 62 % 0 mm
13:35 -10.4 °C -14.6 °C 34533.8 hPa SW 9.3 km/h 9.3 km/h 61 % 0 mm
13:40 -10.4 °C -14.5 °C 34496.6 hPa WSW 9 km/h 9 km/h 61 % 0 mm
13:45 -10.3 °C -14.5 °C 34496.6 hPa WSW 12.7 km/h 12.7 km/h 60 % 0 mm
13:50 -10.2 °C -14.6 °C 34496.6 hPa SSW 9 km/h 9 km/h 59 % 0 mm
13:55 -10.2 °C -14.8 °C 34496.6 hPa SW 15 km/h 15 km/h 57 % 0 mm
14:00 -10 °C -14.7 °C 34496.6 hPa SSW 11.9 km/h 11.9 km/h 57 % 0 mm
14:05 -10 °C -14.8 °C 34496.6 hPa SSW 11.9 km/h 11.9 km/h 56 % 0 mm
14:10 -10 °C -14.8 °C 34496.6 hPa SSW 6.3 km/h 6.3 km/h 56 % 0 mm
14:15 -10.1 °C -14.8 °C 34496.6 hPa SW 6 km/h 6 km/h 56 % 0 mm
14:20 -10.1 °C -14.9 °C 34496.6 hPa SSW 9 km/h 9 km/h 56 % 0 mm
14:25 -10.1 °C -14.8 °C 34462.7 hPa SW 6.3 km/h 6.3 km/h 56 % 0 mm
14:30 -10.1 °C -15 °C 34462.7 hPa WSW 9 km/h 9 km/h 55 % 0 mm
14:35 -9.9 °C -14.9 °C 34462.7 hPa West 6 km/h 6.3 km/h 55 % 0 mm
14:40 -10 °C -14.9 °C 34496.6 hPa WSW 11.9 km/h 11.9 km/h 55 % 0 mm
14:45 -10.1 °C -15.2 °C 34496.6 hPa West 6 km/h 6 km/h 54 % 0 mm
14:50 -10 °C -15.1 °C 34496.6 hPa NW 9 km/h 9 km/h 54 % 0 mm
14:55 -9.9 °C -15 °C 34496.6 hPa East 6.3 km/h   54 % 0 mm
15:00 -9.9 °C -15.1 °C 34496.6 hPa NNE 26.9 km/h 26.9 km/h 54 % 0 mm
15:05 -10.6 °C -15.4 °C 34496.6 hPa NNE 25.1 km/h 25.1 km/h 56 % 0 mm
15:10 -11.1 °C -15.7 °C 34496.6 hPa SE 27.2 km/h 27.2 km/h 57 % 0 mm
15:20 -11.4 °C -15.6 °C 34496.6 hPa ENE 15 km/h 15 km/h 60 % 0 mm
15:25 -11.5 °C -15.4 °C 34496.6 hPa East 15 km/h 15 km/h 62 % 0 mm
15:30 -11.8 °C -15.5 °C 34496.6 hPa ENE 15 km/h 15 km/h 63 % 0 mm
15:35 -11.9 °C -15.5 °C 34496.6 hPa East 15 km/h 15 km/h 64 % 0 mm
15:40 -12 °C -15.6 °C 34496.6 hPa ENE 9 km/h 9 km/h 64 % 0 mm
15:45 -12.1 °C -15.6 °C 34496.6 hPa NE 15 km/h 15 km/h 65 % 0 mm
15:50 -12.2 °C -15.5 °C 34496.6 hPa NNE 9 km/h 9 km/h 66 % 0 mm
15:55 -12.2 °C -15.6 °C 34496.6 hPa NW 6 km/h 6 km/h 66 % 0 mm
16:00 -12.3 °C -15.5 °C 34496.6 hPa East 9 km/h 9 km/h 67 % 0 mm
16:05 -12.4 °C -15.4 °C 34496.6 hPa East 6.3 km/h 6.3 km/h 69 % 0 mm
16:10 -12.4 °C -15.6 °C 34496.6 hPa SW 9.8 km/h 9.8 km/h 68 % 0 mm
16:15 -12.6 °C -15.2 °C 34496.6 hPa WSW 3.7 km/h 3.7 km/h 72 % 0 mm
16:20 -12.7 °C -15.2 °C 34496.6 hPa WNW 3.1 km/h   73 % 0 mm
16:25 -12.7 °C -15.2 °C 34462.7 hPa West 3.1 km/h 3.1 km/h 73 % 0 mm
16:30 -12.7 °C -15.3 °C 34462.7 hPa WSW 6 km/h 6 km/h 73 % 0 mm
16:35 -12.7 °C -15.1 °C 34462.7 hPa SW 12.2 km/h 12.2 km/h 74 % 0 mm
16:40 -12.7 °C -15 °C 34496.6 hPa WSW 5.1 km/h 5.1 km/h 75 % 0 mm
16:45 -12.7 °C -14.9 °C 34496.6 hPa SW 8 km/h 8 km/h 76 % 0 mm
16:50 -12.7 °C -14.8 °C 34496.6 hPa WSW 6 km/h 6.8 km/h 77 % 0 mm
16:55 -12.7 °C -14.8 °C 34462.7 hPa SW 6 km/h 6.3 km/h 78 % 0 mm
17:00 -12.7 °C -14.8 °C 34462.7 hPa SW 6.3 km/h 6.3 km/h 78 % 0 mm
17:05 -12.7 °C -14.8 °C 34462.7 hPa WSW 6.3 km/h 6.3 km/h 78 % 0 mm
17:10 -12.7 °C -14.8 °C 34462.7 hPa SW 6 km/h 6 km/h 78 % 0 mm
17:15 -12.7 °C -14.8 °C 34462.7 hPa SW 9 km/h 9 km/h 78 % 0 mm
17:20 -12.6 °C -14.6 °C 34462.7 hPa WSW 9 km/h 9 km/h 79 % 50.8 mm
17:25 -12.6 °C -14.4 °C 34462.7 hPa SW 16.1 km/h 16.1 km/h 80 % 50.8 mm
17:30 -12.4 °C -14.3 °C 34462.7 hPa SW 11.9 km/h 11.9 km/h 80 % 50.8 mm
17:35 -12.4 °C -14.3 °C 34462.7 hPa WNW 11.9 km/h 11.9 km/h 80 % 50.8 mm
17:40 -12.4 °C -14.3 °C 34462.7 hPa WSW 11.9 km/h 11.9 km/h 79 % 50.8 mm
17:45 -12.4 °C -14.3 °C 34462.7 hPa WSW 6 km/h 6.3 km/h 79 % 50.8 mm
17:50 -12.3 °C -14.3 °C 34462.7 hPa SW 11.9 km/h 11.9 km/h 79 % 50.8 mm
17:55 -12.3 °C -14.3 °C 34462.7 hPa SW 9 km/h 9 km/h 79 % 50.8 mm
18:00 -12.3 °C -14.3 °C 34462.7 hPa SSW 7.6 km/h 7.6 km/h 78 % 50.8 mm
18:05 -12.4 °C -14.4 °C 34462.7 hPa SW 9.3 km/h 9.3 km/h 78 % 50.8 mm
18:10 -12.5 °C -14.6 °C 34462.7 hPa SW 11.9 km/h 11.9 km/h 78 % 50.8 mm
18:15 -12.6 °C -14.8 °C 34462.7 hPa SW 11.9 km/h 11.9 km/h 77 % 50.8 mm
18:20 -12.7 °C -14.7 °C 34462.7 hPa SW 9 km/h 9 km/h 78 % 0 mm
18:25 -12.7 °C -14.8 °C 34462.7 hPa SW 11.1 km/h 11.1 km/h 78 % 0 mm
18:30 -12.8 °C -14.8 °C 34462.7 hPa WSW 11.9 km/h 11.9 km/h 78 % 0 mm
18:35 -12.9 °C -14.9 °C 34462.7 hPa WSW 11.9 km/h 11.9 km/h 78 % 0 mm
18:40 -12.9 °C -14.9 °C 34462.7 hPa SW 9 km/h 9 km/h 78 % 0 mm
18:45 -13 °C -15 °C 34462.7 hPa SW 15 km/h 15 km/h 78 % 0 mm
18:50 -13.1 °C -15.1 °C 34462.7 hPa SW 8.5 km/h 8.5 km/h 78 % 0 mm
18:52 -13.1 °C -15.1 °C 34462.7 hPa SW 9 km/h 9 km/h 78 % 0 mm
18:55 -13.9 °C -16.2 °C 34395 hPa WSW 2.6 km/h 2.6 km/h 75 % 0 mm
18:57 -13.2 °C -15.2 °C 34428.8 hPa WSW 8 km/h 8 km/h 78 % 0 mm
19:02 -13.3 °C -15.3 °C 34428.8 hPa West 9 km/h 9 km/h 78 % 0 mm
19:05 -13.9 °C -16.2 °C 34395 hPa Calm   2.6 km/h 75 % 0 mm
19:07 -13.2 °C -15.3 °C 34428.8 hPa West 6 km/h 6 km/h 77 % 0 mm
19:12 -13.2 °C -15.4 °C 34462.7 hPa West 6 km/h 6.3 km/h 76 % 0 mm
19:15 -14 °C -16.3 °C 34395 hPa NNW 2.6 km/h   75 % 0 mm
19:17 -13.2 °C -15.5 °C 34462.7 hPa WSW 9 km/h 9 km/h 75 % 0 mm
19:22 -13.2 °C -15.5 °C 34462.7 hPa WSW 6 km/h 6 km/h 75 % 0 mm
19:25 -14.1 °C -16.4 °C 34395 hPa Calm   5.1 km/h 75 % 0 mm
19:27 -13.2 °C -15.5 °C 34462.7 hPa WSW 9 km/h 9 km/h 75 % 0 mm
19:32 -13.3 °C -15.7 °C 34462.7 hPa WSW 6 km/h 6 km/h 75 % 0 mm
19:35 -14.1 °C -16.3 °C 34395 hPa Calm   2.6 km/h 75 % 0 mm
19:37 -13.3 °C -15.7 °C 34462.7 hPa WSW 3.1 km/h   74 % 0 mm
19:42 -13.4 °C -15.8 °C 34462.7 hPa WSW 6 km/h 6 km/h 74 % 0 mm
19:45 -14.2 °C -16.5 °C 34395 hPa Calm   2.6 km/h 75 % 0 mm
19:47 -13.4 °C -15.9 °C 34462.7 hPa SW 4.2 km/h   74 % 0 mm
19:52 -13.5 °C -15.9 °C 34462.7 hPa Calm     74 % 0 mm
19:55 -14.3 °C -16.6 °C 34395 hPa East 2.6 km/h 7.7 km/h 75 % 0 mm
19:57 -13.5 °C -15.9 °C 34462.7 hPa SW 3.7 km/h 3.7 km/h 74 % 0 mm
20:02 -13.4 °C -15.9 °C 34462.7 hPa WSW 5.1 km/h   74 % 0 mm
20:05 -14.3 °C -16.6 °C 34395 hPa West 2.6 km/h 2.6 km/h 75 % 0 mm
20:07 -13.4 °C -15.9 °C 34462.7 hPa WSW 6 km/h 6 km/h 74 % 0 mm
20:12 -13.4 °C -15.9 °C 34462.7 hPa West 6 km/h 6 km/h 74 % 0 mm
20:15 -14.3 °C -16.6 °C 34395 hPa Calm   2.6 km/h 75 % 0 mm
20:17 -13.4 °C -15.9 °C 34462.7 hPa NNE 11.9 km/h 11.9 km/h 74 % 0 mm
20:22 -13.4 °C -15.8 °C 34462.7 hPa West 9 km/h 9 km/h 74 % 0 mm
20:25 -14.3 °C -16.6 °C 34395 hPa NW 2.6 km/h 2.6 km/h 75 % 0 mm
20:27 -13.3 °C -15.7 °C 34462.7 hPa ENE 9 km/h 9 km/h 74 % 0 mm
20:32 -13.3 °C -15.7 °C 34462.7 hPa NNE 3.1 km/h 3.1 km/h 74 % 0 mm
20:35 -14.3 °C -16.5 °C 34361.1 hPa North 2.6 km/h 2.6 km/h 76 % 0 mm
20:37 -13.4 °C -15.8 °C 34462.7 hPa SW 3.1 km/h 3.1 km/h 74 % 0 mm
20:45 -14.3 °C -16.5 °C 34361.1 hPa NNE 2.6 km/h 5.1 km/h 76 % 0 mm
20:47 -13.4 °C -15.9 °C 34462.7 hPa Calm     74 % 0 mm
20:52 -13.5 °C -15.9 °C 34462.7 hPa Calm     74 % 0 mm
20:55 -14.3 °C -16.5 °C 34361.1 hPa NNE 2.6 km/h 5.1 km/h 76 % 0 mm
20:57 -13.5 °C -15.9 °C 34462.7 hPa Calm     74 % 0 mm
21:02 -13.6 °C -15.9 °C 34462.7 hPa West 3.1 km/h   74 % 0 mm
21:05 -14.3 °C -16.4 °C 34395 hPa NE 2.6 km/h 5.1 km/h 76 % 0 mm
21:07 -13.6 °C -16 °C 34462.7 hPa WSW 6 km/h 6 km/h 74 % 0 mm
21:12 -13.6 °C -16 °C 34462.7 hPa Calm     74 % 0 mm
21:15 -14.3 °C -16.6 °C 34361.1 hPa Calm   5.1 km/h 75 % 0 mm
21:17 -13.6 °C -16 °C 34462.7 hPa SW 3.1 km/h 3.1 km/h 74 % 0 mm
21:22 -13.7 °C -16.1 °C 34462.7 hPa SW 3.1 km/h   74 % 0 mm
21:25 -14.4 °C -16.7 °C 34361.1 hPa Calm   2.6 km/h 75 % 0 mm
21:27 -13.7 °C -16 °C 34462.7 hPa Calm     75 % 0 mm
21:32 -13.7 °C -16 °C 34462.7 hPa WSW 3.1 km/h   75 % 0 mm
21:35 -14.6 °C -16.9 °C 34361.1 hPa WSW 2.6 km/h 5.1 km/h 75 % 0 mm
21:37 -13.8 °C -16.1 °C 34462.7 hPa Calm     75 % 0 mm
21:42 -13.8 °C -16.1 °C 34462.7 hPa WSW 3.1 km/h   75 % 0 mm
21:45 -14.7 °C -17 °C 34361.1 hPa SW 2.6 km/h 5.1 km/h 75 % 0 mm
21:47 -13.8 °C -16.2 °C 34462.7 hPa SW 3.1 km/h   75 % 0 mm
21:52 -13.8 °C -16.1 °C 34462.7 hPa WSW 3.7 km/h 3.7 km/h 75 % 0 mm
21:55 -14.6 °C -16.9 °C 34361.1 hPa WSW 2.6 km/h 2.6 km/h 75 % 0 mm
21:57 -13.8 °C -16.1 °C 34462.7 hPa Calm     75 % 0 mm
22:02 -13.8 °C -16.1 °C 34462.7 hPa Calm     75 % 0 mm
22:05 -14.6 °C -16.7 °C 34361.1 hPa WNW 2.6 km/h 5.1 km/h 76 % 0 mm
22:07 -13.8 °C -16.2 °C 34462.7 hPa WSW 6 km/h 6 km/h 75 % 0 mm
22:12 -13.9 °C -16.2 °C 34462.7 hPa SSW 6.3 km/h 6.3 km/h 75 % 0 mm
22:15 -14.6 °C -16.8 °C 34361.1 hPa NNE 5.1 km/h 5.1 km/h 76 % 0 mm
22:17 -14 °C -16.3 °C 34462.7 hPa WSW 6.3 km/h 6.3 km/h 75 % 0 mm
22:22 -14.1 °C -16.3 °C 34462.7 hPa WSW 3.1 km/h 3.7 km/h 75 % 0 mm
22:25 -14.6 °C -16.8 °C 34361.1 hPa Calm   5.1 km/h 76 % 0 mm
22:27 -14 °C -16.3 °C 34462.7 hPa SW 9 km/h 9 km/h 75 % 0 mm
22:32 -13.9 °C -16.2 °C 34462.7 hPa SW 6 km/h 6 km/h 75 % 0 mm
22:35 -14.6 °C -16.8 °C 34361.1 hPa NE 5.1 km/h 5.1 km/h 76 % 0 mm
22:37 -13.9 °C -16.2 °C 34462.7 hPa SSW 6 km/h 6 km/h 75 % 0 mm
22:42 -13.9 °C -16.1 °C 34462.7 hPa SW 3.1 km/h   76 % 0 mm
22:47 -13.9 °C -16.2 °C 34462.7 hPa Calm     76 % 0 mm
22:52 -13.9 °C -16.1 °C 34462.7 hPa WSW 6.3 km/h 6.3 km/h 76 % 0 mm
22:55 -14.7 °C -16.8 °C 34327.3 hPa Calm     76 % 0 mm
22:57 -13.9 °C -16.1 °C 34462.7 hPa SW 6.3 km/h 6.3 km/h 76 % 0 mm
23:02 -13.9 °C -16.1 °C 34462.7 hPa WSW 6.8 km/h 6.8 km/h 76 % 0 mm
23:05 -14.7 °C -16.9 °C 34327.3 hPa Calm   2.6 km/h 76 % 0 mm
23:07 -13.9 °C -16.1 °C 34462.7 hPa WSW 6 km/h 6 km/h 76 % 0 mm
23:12 -13.9 °C -16.1 °C 34428.8 hPa WSW 4.2 km/h 4.2 km/h 76 % 0 mm
23:15 -14.8 °C -16.9 °C 34327.3 hPa Calm   2.6 km/h 76 % 0 mm
23:17 -13.9 °C -16.2 °C 34428.8 hPa SW 6.3 km/h 6.3 km/h 76 % 0 mm
23:22 -14 °C -16.2 °C 34428.8 hPa WSW 6 km/h 6 km/h 76 % 0 mm
23:25 -14.7 °C -16.9 °C 34327.3 hPa NNW 2.6 km/h 5.1 km/h 76 % 0 mm
23:27 -14 °C -16.2 °C 34428.8 hPa WSW 3.1 km/h 3.1 km/h 76 % 0 mm
23:32 -14.1 °C -16.2 °C 34428.8 hPa Calm     76 % 0 mm
23:35 -14.7 °C -16.8 °C 34327.3 hPa NNE 2.6 km/h 5.1 km/h 76 % 0 mm
23:37 -14.1 °C -16.2 °C 34428.8 hPa SW 3.1 km/h 3.1 km/h 76 % 0 mm
23:42 -14 °C -16.2 °C 34428.8 hPa WSW 3.1 km/h 3.1 km/h 76 % 0 mm
23:45 -14.7 °C -16.8 °C 34327.3 hPa NNE 7.7 km/h 7.7 km/h 76 % 0 mm
23:47 -14.1 °C -16.2 °C 34428.8 hPa Calm     76 % 0 mm
23:55 -14.6 °C -16.8 °C 34327.3 hPa NNE 2.6 km/h 7.7 km/h 76 % 0 mm
Meteo Sesrovires
Elogis d' Weather Underground - 1.5 mb

Guio original per  Jim McMurry - jmcmurry@mwt.net Adaptat per a la plantilla per  Wim van der Kuil - Leuven-Template.eu

Trobareu la nostra informacio del temps tambe a:

Weather Underground

AWEKAS